createdAt,value
2022-11-02T00:01:31.106Z,10.97
2022-11-02T00:03:58.010Z,10.97
2022-11-02T00:06:24.748Z,9.77
2022-11-02T00:08:51.544Z,12.40
2022-11-02T00:11:18.358Z,8.00
2022-11-02T00:13:45.111Z,10.97
2022-11-02T00:16:15.739Z,9.10
2022-11-02T00:18:44.240Z,11.73
2022-11-02T00:21:11.747Z,10.63
2022-11-02T00:23:40.556Z,9.80
2022-11-02T00:26:07.559Z,10.60
2022-11-02T00:28:35.197Z,8.53
2022-11-02T00:31:01.969Z,10.03
2022-11-02T00:33:28.803Z,8.67
2022-11-02T00:35:56.180Z,10.40
2022-11-02T00:38:23.212Z,9.27
2022-11-02T00:40:50.023Z,9.83
2022-11-02T00:43:16.775Z,10.33
2022-11-02T00:45:43.521Z,7.90
2022-11-02T00:48:10.614Z,12.03
2022-11-02T00:50:37.964Z,8.20
2022-11-02T00:53:04.826Z,7.53
2022-11-02T00:55:31.689Z,5.23
2022-11-02T00:57:58.536Z,6.63
2022-11-02T01:00:25.501Z,4.70
2022-11-02T01:02:52.323Z,4.20
2022-11-02T01:05:19.279Z,5.30
2022-11-02T01:07:46.473Z,5.50
2022-11-02T01:10:13.290Z,4.70
2022-11-02T01:12:40.786Z,5.10
2022-11-02T01:15:08.819Z,5.33
2022-11-02T01:17:35.722Z,5.00
2022-11-02T01:20:03.322Z,7.97
2022-11-02T01:22:30.285Z,7.70
2022-11-02T01:24:57.138Z,7.97
2022-11-02T01:27:24.124Z,5.43
2022-11-02T01:29:50.956Z,7.43
2022-11-02T01:32:17.680Z,6.43
2022-11-02T01:34:44.507Z,4.97
2022-11-02T01:37:11.482Z,7.07
2022-11-02T01:39:38.317Z,4.97
2022-11-02T01:42:23.430Z,4.93
2022-11-02T01:44:50.382Z,4.67
2022-11-02T01:47:31.414Z,4.27
2022-11-02T01:50:05.433Z,4.47
2022-11-02T01:52:37.094Z,5.60
2022-11-02T01:55:09.855Z,8.07
2022-11-02T01:57:38.081Z,7.63
2022-11-02T02:00:12.116Z,8.73
2022-11-02T02:02:45.383Z,9.70
2022-11-02T02:05:14.413Z,8.87
2022-11-02T02:07:42.045Z,9.37
2022-11-02T02:10:09.519Z,10.40
2022-11-02T02:12:39.294Z,8.40
2022-11-02T02:15:06.865Z,9.90
2022-11-02T02:17:36.458Z,7.17
2022-11-02T02:20:08.162Z,7.23
2022-11-02T02:22:53.228Z,7.60
2022-11-02T02:25:38.596Z,9.53
2022-11-02T02:28:19.632Z,8.57
2022-11-02T02:31:01.536Z,7.97
2022-11-02T02:33:30.911Z,10.53
2022-11-02T02:36:04.287Z,8.53
2022-11-02T02:38:36.638Z,7.03
2022-11-02T02:41:18.553Z,7.30
2022-11-02T02:43:54.941Z,7.30
2022-11-02T02:46:34.568Z,7.63
2022-11-02T02:49:03.355Z,6.00
2022-11-02T02:51:32.958Z,6.13
2022-11-02T02:54:20.388Z,6.20
2022-11-02T02:56:52.803Z,7.00
2022-11-02T02:59:24.768Z,8.53
2022-11-02T03:01:53.850Z,5.27
2022-11-02T03:04:20.870Z,9.47
2022-11-02T03:06:53.606Z,5.10
2022-11-02T03:09:20.970Z,6.10
2022-11-02T03:12:16.421Z,5.80
2022-11-02T03:15:04.895Z,5.43
2022-11-02T03:17:57.214Z,4.63
2022-11-02T03:21:01.001Z,5.00
2022-11-02T03:23:30.872Z,4.50
2022-11-02T03:26:14.682Z,6.17
2022-11-02T03:29:05.015Z,4.77
2022-11-02T03:31:37.960Z,4.70
2022-11-02T03:34:37.302Z,5.80
2022-11-02T03:37:16.472Z,5.57
2022-11-02T03:40:03.478Z,5.67
2022-11-02T03:42:33.202Z,4.60
2022-11-02T03:45:22.651Z,6.87
2022-11-02T03:47:58.660Z,5.53
2022-11-02T03:50:27.633Z,6.27
2022-11-02T03:53:05.635Z,7.60
2022-11-02T03:55:38.963Z,11.37
2022-11-02T03:58:06.178Z,7.40
2022-11-02T04:00:36.072Z,7.93
2022-11-02T04:03:07.023Z,5.30
2022-11-02T04:05:36.021Z,5.93
2022-11-02T04:08:22.086Z,6.43
2022-11-02T04:11:09.546Z,6.33
2022-11-02T04:13:55.245Z,5.70
2022-11-02T04:16:26.696Z,6.80
2022-11-02T04:19:13.942Z,4.43
2022-11-02T04:21:41.524Z,6.83
2022-11-02T04:24:27.702Z,7.00
2022-11-02T04:26:54.434Z,6.27
2022-11-02T04:29:21.178Z,7.67
2022-11-02T04:31:47.878Z,6.60
2022-11-02T04:34:14.658Z,5.27
2022-11-02T04:36:41.416Z,6.13
2022-11-02T04:39:08.188Z,8.27
2022-11-02T04:41:44.099Z,4.40
2022-11-02T04:44:14.286Z,10.23
2022-11-02T04:46:42.516Z,22.43
2022-11-02T04:49:10.348Z,15.70
2022-11-02T04:51:40.117Z,7.03
2022-11-02T04:54:07.015Z,20.50
2022-11-02T04:56:33.879Z,6.80
2022-11-02T04:59:00.879Z,6.77
2022-11-02T05:01:29.528Z,4.77
2022-11-02T05:03:57.075Z,8.87
2022-11-02T05:06:24.905Z,4.53
2022-11-02T05:08:52.283Z,4.20
2022-11-02T05:11:21.193Z,5.33
2022-11-02T05:13:49.589Z,4.37
2022-11-02T05:16:18.093Z,8.43
2022-11-02T05:18:46.078Z,8.53
2022-11-02T05:21:13.123Z,9.67
2022-11-02T05:23:39.891Z,4.80
2022-11-02T05:26:12.040Z,6.10
2022-11-02T05:28:39.268Z,7.47
2022-11-02T05:31:06.538Z,4.13
2022-11-02T05:33:33.932Z,5.73
2022-11-02T05:36:01.332Z,8.30
2022-11-02T05:38:29.018Z,5.50
2022-11-02T05:40:58.303Z,6.33
2022-11-02T05:43:26.943Z,10.83
2022-11-02T05:45:59.133Z,10.13
2022-11-02T05:48:28.104Z,5.23
2022-11-02T05:51:00.170Z,11.20
2022-11-02T05:53:28.126Z,6.63
2022-11-02T05:55:59.459Z,6.90
2022-11-02T05:58:27.110Z,7.53
2022-11-02T06:00:54.174Z,5.97
2022-11-02T06:03:20.951Z,7.77
2022-11-02T06:05:47.990Z,8.43
2022-11-02T06:08:14.960Z,6.73
2022-11-02T06:10:43.398Z,6.27
2022-11-02T06:13:10.281Z,8.80
2022-11-02T06:15:37.011Z,6.47
2022-11-02T06:18:03.900Z,7.73
2022-11-02T06:20:30.794Z,6.43
2022-11-02T06:22:57.621Z,5.30
2022-11-02T06:25:24.685Z,7.03
2022-11-02T06:27:57.011Z,6.07
2022-11-02T06:30:25.475Z,6.17
2022-11-02T06:32:54.136Z,7.80
2022-11-02T06:35:22.725Z,6.37
2022-11-02T06:37:49.798Z,5.53
2022-11-02T06:40:18.350Z,8.80
2022-11-02T06:43:03.419Z,8.10
2022-11-02T06:45:34.206Z,5.73
2022-11-02T06:48:01.163Z,5.97
2022-11-02T06:50:28.048Z,9.13
2022-11-02T06:52:54.793Z,6.43
2022-11-02T06:55:21.620Z,5.30
2022-11-02T06:57:48.662Z,9.77
2022-11-02T07:00:21.130Z,6.93
2022-11-02T07:03:09.714Z,7.67
2022-11-02T07:05:37.432Z,8.97
2022-11-02T07:08:05.194Z,6.47
2022-11-02T07:10:32.162Z,9.20
2022-11-02T07:12:59.174Z,8.97
2022-11-02T07:15:27.004Z,11.23
2022-11-02T07:17:54.484Z,10.30
2022-11-02T07:20:21.834Z,10.70
2022-11-02T07:22:57.559Z,7.50
2022-11-02T07:25:26.370Z,9.23
2022-11-02T07:27:54.083Z,11.87
2022-11-02T07:30:22.852Z,7.57
2022-11-02T07:32:49.649Z,7.60
2022-11-02T07:35:17.707Z,10.10
2022-11-02T07:37:45.076Z,15.20
2022-11-02T07:40:14.314Z,6.47
2022-11-02T07:42:46.968Z,6.70
2022-11-02T07:45:14.298Z,7.00
2022-11-02T07:47:47.830Z,5.73
2022-11-02T07:50:20.416Z,6.07
2022-11-02T07:52:53.202Z,8.60
2022-11-02T07:55:23.123Z,10.23
2022-11-02T07:57:59.155Z,9.33
2022-11-02T08:00:28.582Z,6.20
2022-11-02T08:02:56.720Z,9.93
2022-11-02T08:05:24.044Z,8.93
2022-11-02T08:08:02.367Z,9.43
2022-11-02T08:10:35.385Z,5.70
2022-11-02T08:13:06.861Z,6.80
2022-11-02T08:15:33.661Z,9.27
2022-11-02T08:18:21.848Z,8.97
2022-11-02T08:20:50.153Z,8.40
2022-11-02T08:23:18.948Z,7.93
2022-11-02T08:25:47.353Z,7.23
2022-11-02T08:28:17.703Z,6.70
2022-11-02T08:30:45.785Z,10.93
2022-11-02T08:33:18.049Z,7.17
2022-11-02T08:35:47.342Z,13.53
2022-11-02T08:38:15.298Z,10.40
2022-11-02T08:40:43.492Z,8.20
2022-11-02T08:43:13.419Z,7.13
2022-11-02T08:46:13.165Z,10.10
2022-11-02T08:48:29.689Z,8.83
2022-11-02T08:50:56.516Z,7.07
2022-11-02T08:53:23.652Z,12.00
2022-11-02T08:55:50.604Z,4.93
2022-11-02T08:58:18.665Z,10.73
2022-11-02T09:00:45.698Z,6.77
2022-11-02T09:03:14.614Z,9.60
2022-11-02T09:05:46.705Z,9.23
2022-11-02T09:08:19.322Z,7.70
2022-11-02T09:10:49.332Z,8.43
2022-11-02T09:13:20.785Z,7.83
2022-11-02T09:15:50.751Z,5.27
2022-11-02T09:18:17.536Z,8.40
2022-11-02T09:20:44.343Z,9.13
2022-11-02T09:23:11.227Z,4.97
2022-11-02T09:25:38.294Z,6.83
2022-11-02T09:28:05.369Z,5.97
2022-11-02T09:30:32.666Z,5.07
2022-11-02T09:33:05.294Z,7.40
2022-11-02T09:35:39.836Z,7.80
2022-11-02T09:38:06.833Z,3.73
2022-11-02T09:40:38.387Z,5.87
2022-11-02T09:43:36.174Z,6.33
2022-11-02T09:46:15.676Z,6.57
2022-11-02T09:48:47.057Z,5.80
2022-11-02T09:51:27.665Z,4.73
2022-11-02T09:54:06.827Z,6.03
2022-11-02T09:56:35.565Z,7.57
2022-11-02T09:59:10.284Z,9.50
2022-11-02T10:02:08.127Z,6.60
2022-11-02T10:04:56.468Z,7.97
2022-11-02T10:07:23.470Z,6.80
2022-11-02T10:09:56.763Z,9.07
2022-11-02T10:13:08.203Z,8.70
2022-11-02T10:16:13.367Z,5.63
2022-11-02T10:18:42.800Z,6.33
2022-11-02T10:21:15.764Z,7.33
2022-11-02T10:23:58.145Z,8.53
2022-11-02T10:26:36.274Z,7.63
2022-11-02T10:29:45.206Z,5.60
2022-11-02T10:32:13.963Z,9.00
2022-11-02T10:34:41.802Z,7.70
2022-11-02T10:37:22.747Z,4.03
2022-11-02T10:40:03.171Z,6.80
2022-11-02T10:43:08.291Z,6.30
2022-11-02T10:45:48.249Z,9.33
2022-11-02T10:48:39.541Z,7.30
2022-11-02T10:51:10.348Z,7.03
2022-11-02T10:53:42.233Z,4.70
2022-11-02T10:56:29.210Z,5.70
2022-11-02T10:58:59.203Z,9.20
2022-11-02T11:01:27.928Z,8.93
2022-11-02T11:04:00.856Z,9.87
2022-11-02T11:06:48.151Z,2.07
2022-11-02T11:09:30.736Z,8.70
2022-11-02T11:12:13.812Z,7.40
2022-11-02T11:20:38.744Z,6.30
2022-11-02T11:23:25.936Z,4.03
2022-11-02T11:25:58.988Z,4.40
2022-11-02T11:28:27.320Z,3.67
2022-11-02T11:31:13.159Z,9.07
2022-11-02T11:33:46.301Z,5.83
2022-11-02T11:36:23.476Z,8.03
2022-11-02T11:38:54.045Z,5.07
2022-11-02T11:41:21.291Z,9.37
2022-11-02T11:43:51.107Z,7.33
2022-11-02T11:46:18.097Z,4.57
2022-11-02T11:48:56.723Z,5.33
2022-11-02T11:51:31.044Z,4.80
2022-11-02T11:54:20.098Z,9.07
2022-11-02T11:56:48.305Z,3.77
2022-11-02T11:59:21.386Z,6.33
2022-11-02T12:01:48.684Z,5.40
2022-11-02T12:04:29.149Z,9.50
2022-11-02T12:07:28.261Z,4.53
2022-11-02T12:10:24.374Z,4.97
2022-11-02T12:13:13.443Z,6.90
2022-11-02T12:16:07.815Z,7.27
2022-11-02T12:19:01.975Z,4.67
2022-11-02T12:21:40.347Z,5.17
2022-11-02T12:24:16.720Z,5.13
2022-11-02T12:26:49.142Z,9.57
2022-11-02T12:30:15.111Z,10.00
2022-11-02T12:33:07.044Z,9.87
2022-11-02T12:35:42.652Z,7.20
2022-11-02T12:38:34.822Z,5.53
2022-11-02T12:41:12.420Z,7.73
2022-11-02T12:43:49.103Z,4.77
2022-11-02T12:46:42.270Z,7.20
2022-11-02T12:49:12.950Z,7.17
2022-11-02T12:52:13.724Z,7.40
2022-11-02T12:54:46.229Z,6.27
2022-11-02T12:57:16.517Z,3.67
2022-11-02T12:59:44.781Z,6.30
2022-11-02T13:02:30.773Z,8.83
2022-11-02T13:05:19.872Z,6.07
2022-11-02T13:08:15.880Z,7.63
2022-11-02T13:10:54.435Z,6.90
2022-11-02T13:13:37.891Z,5.20
2022-11-02T13:16:07.929Z,8.03
2022-11-02T13:18:55.192Z,4.37
2022-11-02T13:21:45.804Z,4.47
2022-11-02T13:24:53.409Z,9.30
2022-11-02T13:27:36.813Z,7.70
2022-11-02T13:30:24.943Z,8.17
2022-11-02T13:33:16.025Z,7.13
2022-11-02T13:35:43.559Z,5.33
2022-11-02T13:38:13.550Z,7.77
2022-11-02T13:40:45.895Z,5.93
2022-11-02T13:43:47.222Z,4.33
2022-11-02T13:46:51.120Z,6.60
2022-11-02T13:49:29.436Z,6.47
2022-11-02T13:52:16.996Z,5.37
2022-11-02T13:57:37.400Z,8.13
2022-11-02T14:00:26.234Z,7.80
2022-11-02T14:03:08.189Z,4.90
2022-11-02T14:05:44.399Z,3.47
2022-11-02T14:08:37.882Z,6.37
2022-11-02T14:11:04.682Z,7.43
2022-11-02T14:13:52.012Z,5.40
2022-11-02T14:16:44.935Z,6.13
2022-11-02T14:19:19.465Z,5.67
2022-11-02T14:21:50.032Z,12.23
2022-11-02T14:24:38.254Z,9.43
2022-11-02T14:27:14.116Z,7.50
2022-11-02T14:29:47.021Z,9.33
2022-11-02T14:32:31.532Z,6.73
2022-11-02T14:35:37.891Z,5.60
2022-11-02T14:38:38.691Z,6.67
2022-11-02T14:41:42.673Z,5.67
2022-11-02T14:44:20.162Z,5.83
2022-11-02T14:47:19.027Z,4.67
2022-11-02T14:49:56.464Z,6.90
2022-11-02T14:52:31.995Z,9.07
2022-11-02T14:55:19.671Z,7.87
2022-11-02T14:57:58.628Z,6.37
2022-11-02T15:00:33.648Z,7.63
2022-11-02T15:03:01.557Z,5.63
2022-11-02T15:05:35.909Z,8.77
2022-11-02T15:08:16.133Z,6.90
2022-11-02T15:10:45.194Z,4.83
2022-11-02T15:13:21.403Z,8.83
2022-11-02T15:15:51.802Z,6.60
2022-11-02T15:18:30.451Z,11.50
2022-11-02T15:21:22.485Z,13.17
2022-11-02T15:24:04.619Z,14.53
2022-11-02T15:26:53.722Z,9.17
2022-11-02T15:29:33.388Z,13.90
2022-11-02T15:32:02.095Z,9.57
2022-11-02T15:34:43.791Z,9.73
2022-11-02T15:37:24.759Z,10.40
2022-11-02T15:39:54.065Z,12.90
2022-11-02T15:42:44.629Z,15.03
2022-11-02T15:45:49.011Z,11.13
2022-11-02T15:48:35.296Z,13.10
2022-11-02T15:51:02.010Z,11.57
2022-11-02T15:53:47.715Z,8.70
2022-11-02T15:56:32.537Z,15.10
2022-11-02T15:59:17.320Z,10.93
2022-11-02T16:01:44.290Z,9.30
2022-11-02T16:04:22.200Z,8.50
2022-11-02T16:06:49.640Z,7.43
2022-11-02T16:09:34.768Z,7.60
2022-11-02T16:12:13.056Z,10.50
2022-11-02T16:14:40.660Z,5.97
2022-11-02T16:17:28.247Z,8.80
2022-11-02T16:20:28.790Z,5.77
2022-11-02T16:23:06.545Z,9.80
2022-11-02T16:25:40.704Z,10.40
2022-11-02T16:28:22.622Z,10.67
2022-11-02T16:31:10.928Z,12.17
2022-11-02T16:33:43.998Z,12.60
2022-11-02T16:36:37.956Z,9.93
2022-11-02T16:39:16.485Z,15.03
2022-11-02T16:41:55.818Z,12.70
2022-11-02T16:44:31.089Z,10.30
2022-11-02T16:47:18.393Z,9.33
2022-11-02T16:49:51.543Z,9.43
2022-11-02T16:52:25.713Z,9.23
2022-11-02T16:54:52.652Z,11.00
2022-11-02T16:57:23.777Z,9.33
2022-11-02T16:59:51.561Z,11.83
2022-11-02T17:02:19.636Z,13.37
2022-11-02T17:04:47.940Z,13.90
2022-11-02T17:07:24.668Z,15.47
2022-11-02T17:09:59.499Z,14.50
2022-11-02T17:12:35.759Z,15.53
2022-11-02T17:15:14.287Z,18.07
2022-11-02T17:17:41.131Z,25.80
2022-11-02T17:20:09.684Z,24.87
2022-11-02T17:22:39.029Z,17.30
2022-11-02T17:25:21.133Z,24.43
2022-11-02T17:27:48.676Z,21.00
2022-11-02T17:30:33.516Z,17.80
2022-11-02T17:33:09.771Z,15.30
2022-11-02T17:35:37.180Z,14.37
2022-11-02T17:38:04.346Z,13.03
2022-11-02T17:40:32.157Z,13.23
2022-11-02T17:42:58.982Z,14.43
2022-11-02T17:45:28.588Z,18.43
2022-11-02T17:48:00.200Z,17.67
2022-11-02T17:50:31.602Z,22.47
2022-11-02T17:52:59.822Z,12.60
2022-11-02T17:55:29.180Z,11.80
2022-11-02T17:57:57.086Z,19.77
2022-11-02T18:00:25.068Z,14.87
2022-11-02T18:02:54.251Z,20.37
2022-11-02T18:05:35.161Z,13.53
2022-11-02T18:08:03.089Z,10.90
2022-11-02T18:10:37.032Z,15.67
2022-11-02T18:13:04.492Z,8.27
2022-11-02T18:15:33.226Z,9.27
2022-11-02T18:18:00.187Z,15.67
2022-11-02T18:20:28.483Z,10.87
2022-11-02T18:22:56.972Z,10.07
2022-11-02T18:25:26.310Z,7.90
2022-11-02T18:27:53.891Z,12.73
2022-11-02T18:30:20.701Z,9.20
2022-11-02T18:32:47.663Z,9.33
2022-11-02T18:35:17.305Z,13.77
2022-11-02T18:37:44.767Z,17.00
2022-11-02T18:40:14.443Z,17.87
2022-11-02T18:42:42.670Z,14.40
2022-11-02T18:45:11.841Z,11.93
2022-11-02T18:47:38.956Z,13.40
2022-11-02T18:50:06.929Z,13.37
2022-11-02T18:52:33.881Z,14.80
2022-11-02T18:55:05.085Z,14.53
2022-11-02T18:57:32.918Z,26.53
2022-11-02T19:00:02.741Z,27.13
2022-11-02T19:02:30.000Z,21.60
2022-11-02T19:04:56.999Z,15.90
2022-11-02T19:07:44.447Z,22.50
2022-11-02T19:10:11.172Z,16.13
2022-11-02T19:12:38.176Z,15.87
2022-11-02T19:15:05.904Z,12.97
2022-11-02T19:17:32.994Z,13.43
2022-11-02T19:20:00.039Z,11.40
2022-11-02T19:22:27.157Z,11.13
2022-11-02T19:24:53.894Z,13.10
2022-11-02T19:27:22.852Z,16.63
2022-11-02T19:29:49.939Z,15.97
2022-11-02T19:32:17.454Z,16.27
2022-11-02T19:34:44.298Z,14.40
2022-11-02T19:37:12.007Z,16.80
2022-11-02T19:39:38.725Z,17.50
2022-11-02T19:42:07.357Z,20.07
2022-11-02T19:44:39.605Z,16.23
2022-11-02T19:47:10.323Z,12.43
2022-11-02T19:49:37.265Z,14.77
2022-11-02T19:52:04.189Z,16.47
2022-11-02T19:54:30.897Z,11.53
2022-11-02T19:56:57.625Z,14.27
2022-11-02T19:59:24.421Z,17.27
2022-11-02T20:01:52.406Z,14.57
2022-11-02T20:04:19.400Z,22.60
2022-11-02T20:06:46.334Z,14.83
2022-11-02T20:09:16.279Z,11.43
2022-11-02T20:11:45.176Z,16.50
2022-11-02T20:14:13.551Z,18.37
2022-11-02T20:16:40.517Z,15.27
2022-11-02T20:19:07.903Z,16.63
2022-11-02T20:21:39.843Z,17.43
2022-11-02T20:24:08.537Z,12.23
2022-11-02T20:26:37.568Z,17.70
2022-11-02T20:29:05.915Z,22.53
2022-11-02T20:31:35.868Z,18.53
2022-11-02T20:34:04.534Z,19.67
2022-11-02T20:36:31.566Z,14.30
2022-11-02T20:38:58.775Z,11.93
2022-11-02T20:41:26.219Z,13.63
2022-11-02T20:43:57.837Z,14.20
2022-11-02T20:46:44.502Z,14.30
2022-11-02T20:49:22.191Z,12.47
2022-11-02T20:51:56.330Z,9.93
2022-11-02T20:54:23.201Z,9.27
2022-11-02T20:56:50.903Z,11.27
2022-11-02T20:59:18.078Z,11.67
2022-11-02T21:01:45.401Z,13.07
2022-11-02T21:04:18.520Z,13.97
2022-11-02T21:06:48.131Z,14.37
2022-11-02T21:09:15.010Z,11.70
2022-11-02T21:12:00.457Z,11.17
2022-11-02T21:14:27.247Z,14.07
2022-11-02T21:16:53.980Z,11.93
2022-11-02T21:19:21.492Z,12.47
2022-11-02T21:21:48.302Z,19.73
2022-11-02T21:24:15.038Z,12.97
2022-11-02T21:26:41.814Z,16.73
2022-11-02T21:29:09.709Z,11.27
2022-11-02T21:31:36.863Z,12.63
2022-11-02T21:34:04.712Z,15.50
2022-11-02T21:36:31.476Z,13.97
2022-11-02T21:38:58.985Z,11.60
2022-11-02T21:41:28.675Z,11.17
2022-11-02T21:43:55.990Z,9.27
2022-11-02T21:46:24.243Z,17.20
2022-11-02T21:48:51.091Z,11.10
2022-11-02T21:51:19.859Z,15.10
2022-11-02T21:53:47.827Z,12.93
2022-11-02T21:56:18.517Z,10.67
2022-11-02T21:58:46.557Z,11.93
2022-11-02T22:01:37.430Z,13.80
2022-11-02T22:04:05.095Z,11.77
2022-11-02T22:06:32.209Z,11.97
2022-11-02T22:09:00.260Z,22.97
2022-11-02T22:11:28.303Z,13.90
2022-11-02T22:13:56.957Z,10.77
2022-11-02T22:16:32.178Z,15.07
2022-11-02T22:19:01.493Z,13.10
2022-11-02T22:21:30.662Z,11.40
2022-11-02T22:23:57.462Z,10.50
2022-11-02T22:26:26.323Z,11.63
2022-11-02T22:28:53.680Z,10.87
2022-11-02T22:31:23.356Z,11.83
2022-11-02T22:33:52.458Z,9.87
2022-11-02T22:36:22.771Z,11.70
2022-11-02T22:38:56.849Z,12.77
2022-11-02T22:41:30.345Z,10.27
2022-11-02T22:44:01.856Z,14.37
2022-11-02T22:46:30.608Z,11.70
2022-11-02T22:48:59.318Z,8.13
2022-11-02T22:51:28.396Z,13.70
2022-11-02T22:53:55.558Z,13.97
2022-11-02T22:56:23.340Z,12.57
2022-11-02T22:58:50.594Z,7.93
2022-11-02T23:01:23.696Z,7.63
2022-11-02T23:03:50.831Z,11.70
2022-11-02T23:06:21.296Z,7.97
2022-11-02T23:08:49.700Z,10.83
2022-11-02T23:11:22.224Z,13.23
2022-11-02T23:13:54.331Z,12.53
2022-11-02T23:16:26.360Z,11.83
2022-11-02T23:19:29.983Z,10.33
2022-11-02T23:22:23.319Z,9.67
2022-11-02T23:25:15.208Z,8.23
2022-11-02T23:28:17.383Z,12.10
2022-11-02T23:31:03.247Z,9.13
2022-11-02T23:33:36.170Z,8.73
2022-11-02T23:36:15.326Z,11.50
2022-11-02T23:39:02.788Z,9.83
2022-11-02T23:41:30.882Z,13.97
2022-11-02T23:44:17.276Z,8.87
2022-11-02T23:46:45.919Z,12.23
2022-11-02T23:49:13.639Z,10.50
2022-11-02T23:51:58.858Z,10.90
2022-11-02T23:54:44.522Z,8.63
2022-11-02T23:57:11.285Z,9.17
2022-11-02T23:59:38.032Z,10.03
